sensor_id;sensor_type;location;lat;lon;timestamp;P1;durP1;ratioP1;P2;durP2;ratioP2
1004;SDS011;491;53.480;10.174;2022-12-07T00:01:11;10.50;;;8.27;;
1004;SDS011;491;53.480;10.174;2022-12-07T00:03:44;10.50;;;6.77;;
1004;SDS011;491;53.480;10.174;2022-12-07T00:06:12;11.90;;;6.70;;
1004;SDS011;491;53.480;10.174;2022-12-07T00:08:39;10.57;;;7.77;;
1004;SDS011;491;53.480;10.174;2022-12-07T00:11:05;13.37;;;7.70;;
1004;SDS011;491;53.480;10.174;2022-12-07T00:13:33;11.70;;;7.40;;
1004;SDS011;491;53.480;10.174;2022-12-07T00:16:03;11.37;;;6.30;;
1004;SDS011;491;53.480;10.174;2022-12-07T00:18:31;12.83;;;8.27;;
1004;SDS011;491;53.480;10.174;2022-12-07T00:21:01;8.73;;;6.50;;
1004;SDS011;491;53.480;10.174;2022-12-07T00:23:27;9.93;;;6.83;;
1004;SDS011;491;53.480;10.174;2022-12-07T00:25:53;10.60;;;7.70;;
1004;SDS011;491;53.480;10.174;2022-12-07T00:28:18;17.30;;;8.67;;
1004;SDS011;491;53.480;10.174;2022-12-07T00:30:44;9.87;;;6.13;;
1004;SDS011;491;53.480;10.174;2022-12-07T00:33:09;10.50;;;7.07;;
1004;SDS011;491;53.480;10.174;2022-12-07T00:35:35;10.07;;;6.40;;
1004;SDS011;491;53.480;10.174;2022-12-07T00:38:00;13.50;;;7.50;;
1004;SDS011;491;53.480;10.174;2022-12-07T00:40:26;12.03;;;7.67;;
1004;SDS011;491;53.480;10.174;2022-12-07T00:42:54;10.87;;;7.47;;
1004;SDS011;491;53.480;10.174;2022-12-07T00:45:20;10.33;;;6.97;;
1004;SDS011;491;53.480;10.174;2022-12-07T00:47:45;14.10;;;9.33;;
1004;SDS011;491;53.480;10.174;2022-12-07T00:50:11;11.53;;;6.50;;
1004;SDS011;491;53.480;10.174;2022-12-07T00:52:36;11.33;;;7.30;;
1004;SDS011;491;53.480;10.174;2022-12-07T00:55:02;12.03;;;7.40;;
1004;SDS011;491;53.480;10.174;2022-12-07T00:57:27;14.43;;;8.67;;
1004;SDS011;491;53.480;10.174;2022-12-07T00:59:55;11.43;;;8.23;;
1004;SDS011;491;53.480;10.174;2022-12-07T01:02:28;9.20;;;6.23;;
1004;SDS011;491;53.480;10.174;2022-12-07T01:04:54;14.73;;;6.93;;
1004;SDS011;491;53.480;10.174;2022-12-07T01:07:19;11.87;;;7.20;;
1004;SDS011;491;53.480;10.174;2022-12-07T01:09:45;8.60;;;5.90;;
1004;SDS011;491;53.480;10.174;2022-12-07T01:12:16;11.47;;;6.70;;
1004;SDS011;491;53.480;10.174;2022-12-07T01:14:42;16.70;;;8.53;;
1004;SDS011;491;53.480;10.174;2022-12-07T01:17:07;11.93;;;5.80;;
1004;SDS011;491;53.480;10.174;2022-12-07T01:19:33;9.87;;;4.10;;
1004;SDS011;491;53.480;10.174;2022-12-07T01:21:58;8.30;;;5.30;;
1004;SDS011;491;53.480;10.174;2022-12-07T01:24:24;8.60;;;4.40;;
1004;SDS011;491;53.480;10.174;2022-12-07T01:26:49;9.27;;;5.70;;
1004;SDS011;491;53.480;10.174;2022-12-07T01:29:15;10.40;;;5.80;;
1004;SDS011;491;53.480;10.174;2022-12-07T01:31:43;7.90;;;4.23;;
1004;SDS011;491;53.480;10.174;2022-12-07T01:34:09;9.67;;;5.37;;
1004;SDS011;491;53.480;10.174;2022-12-07T01:36:35;10.13;;;5.60;;
1004;SDS011;491;53.480;10.174;2022-12-07T01:39:02;14.50;;;7.50;;
1004;SDS011;491;53.480;10.174;2022-12-07T01:41:31;11.33;;;6.33;;
1004;SDS011;491;53.480;10.174;2022-12-07T01:52:13;14.27;;;5.83;;
1004;SDS011;491;53.480;10.174;2022-12-07T01:54:39;9.00;;;5.93;;
1004;SDS011;491;53.480;10.174;2022-12-07T01:57:06;11.00;;;6.10;;
1004;SDS011;491;53.480;10.174;2022-12-07T01:59:33;11.00;;;5.03;;
1004;SDS011;491;53.480;10.174;2022-12-07T02:02:00;7.33;;;4.57;;
1004;SDS011;491;53.480;10.174;2022-12-07T02:04:29;12.33;;;6.00;;
1004;SDS011;491;53.480;10.174;2022-12-07T02:06:55;11.37;;;4.53;;
1004;SDS011;491;53.480;10.174;2022-12-07T02:09:22;7.00;;;3.97;;
1004;SDS011;491;53.480;10.174;2022-12-07T02:11:48;10.10;;;5.93;;
1004;SDS011;491;53.480;10.174;2022-12-07T02:14:13;8.90;;;4.67;;
1004;SDS011;491;53.480;10.174;2022-12-07T02:16:47;4.90;;;3.07;;
1004;SDS011;491;53.480;10.174;2022-12-07T02:28:35;6.10;;;3.70;;
1004;SDS011;491;53.480;10.174;2022-12-07T02:31:14;6.47;;;4.60;;
1004;SDS011;491;53.480;10.174;2022-12-07T02:33:45;7.03;;;4.53;;
1004;SDS011;491;53.480;10.174;2022-12-07T02:36:17;10.93;;;4.40;;
1004;SDS011;491;53.480;10.174;2022-12-07T02:39:00;8.93;;;4.07;;
1004;SDS011;491;53.480;10.174;2022-12-07T02:41:31;8.90;;;4.23;;
1004;SDS011;491;53.480;10.174;2022-12-07T02:44:01;9.87;;;5.17;;
1004;SDS011;491;53.480;10.174;2022-12-07T02:46:42;8.03;;;3.50;;
1004;SDS011;491;53.480;10.174;2022-12-07T02:49:13;5.47;;;2.73;;
1004;SDS011;491;53.480;10.174;2022-12-07T02:51:40;6.87;;;4.10;;
1004;SDS011;491;53.480;10.174;2022-12-07T02:54:15;7.00;;;2.60;;
1004;SDS011;491;53.480;10.174;2022-12-07T02:56:49;12.63;;;4.70;;
1004;SDS011;491;53.480;10.174;2022-12-07T02:59:41;5.23;;;3.30;;
1004;SDS011;491;53.480;10.174;2022-12-07T03:02:31;7.30;;;3.53;;
1004;SDS011;491;53.480;10.174;2022-12-07T03:08:21;7.10;;;3.10;;
1004;SDS011;491;53.480;10.174;2022-12-07T03:11:06;5.23;;;2.50;;
1004;SDS011;491;53.480;10.174;2022-12-07T03:16:40;6.30;;;2.50;;
1004;SDS011;491;53.480;10.174;2022-12-07T03:19:15;6.07;;;2.00;;
1004;SDS011;491;53.480;10.174;2022-12-07T03:21:46;4.50;;;2.70;;
1004;SDS011;491;53.480;10.174;2022-12-07T03:24:17;4.70;;;2.10;;
1004;SDS011;491;53.480;10.174;2022-12-07T03:26:49;4.70;;;2.70;;
1004;SDS011;491;53.480;10.174;2022-12-07T03:29:22;6.40;;;2.50;;
1004;SDS011;491;53.480;10.174;2022-12-07T03:34:55;6.43;;;2.27;;
1004;SDS011;491;53.480;10.174;2022-12-07T03:37:46;6.50;;;2.90;;
1004;SDS011;491;53.480;10.174;2022-12-07T03:40:23;3.53;;;1.87;;
1004;SDS011;491;53.480;10.174;2022-12-07T03:43:04;6.37;;;2.30;;
1004;SDS011;491;53.480;10.174;2022-12-07T03:45:37;4.50;;;1.60;;
1004;SDS011;491;53.480;10.174;2022-12-07T03:48:28;4.00;;;1.80;;
1004;SDS011;491;53.480;10.174;2022-12-07T03:51:01;7.17;;;1.50;;
1004;SDS011;491;53.480;10.174;2022-12-07T03:53:45;5.93;;;1.47;;
1004;SDS011;491;53.480;10.174;2022-12-07T03:56:16;7.03;;;1.50;;
1004;SDS011;491;53.480;10.174;2022-12-07T03:58:43;5.70;;;2.10;;
1004;SDS011;491;53.480;10.174;2022-12-07T04:01:09;3.30;;;1.80;;
1004;SDS011;491;53.480;10.174;2022-12-07T04:03:34;3.67;;;0.93;;
1004;SDS011;491;53.480;10.174;2022-12-07T04:06:00;3.90;;;1.37;;
1004;SDS011;491;53.480;10.174;2022-12-07T04:08:26;5.93;;;1.30;;
1004;SDS011;491;53.480;10.174;2022-12-07T04:10:51;8.70;;;1.40;;
1004;SDS011;491;53.480;10.174;2022-12-07T04:13:18;3.17;;;1.67;;
1004;SDS011;491;53.480;10.174;2022-12-07T04:15:43;4.20;;;1.40;;
1004;SDS011;491;53.480;10.174;2022-12-07T04:18:08;2.30;;;1.00;;
1004;SDS011;491;53.480;10.174;2022-12-07T04:20:34;3.47;;;0.93;;
1004;SDS011;491;53.480;10.174;2022-12-07T04:23:00;1.63;;;0.37;;
1004;SDS011;491;53.480;10.174;2022-12-07T04:25:25;2.60;;;1.20;;
1004;SDS011;491;53.480;10.174;2022-12-07T04:27:51;2.37;;;1.40;;
1004;SDS011;491;53.480;10.174;2022-12-07T04:30:16;2.80;;;0.83;;
1004;SDS011;491;53.480;10.174;2022-12-07T04:32:42;7.07;;;1.50;;
1004;SDS011;491;53.480;10.174;2022-12-07T04:35:07;6.87;;;1.57;;
1004;SDS011;491;53.480;10.174;2022-12-07T04:37:33;2.13;;;0.80;;
1004;SDS011;491;53.480;10.174;2022-12-07T04:39:59;1.37;;;0.60;;
1004;SDS011;491;53.480;10.174;2022-12-07T04:42:24;2.77;;;0.67;;
1004;SDS011;491;53.480;10.174;2022-12-07T04:44:50;1.33;;;0.90;;
1004;SDS011;491;53.480;10.174;2022-12-07T04:47:16;3.00;;;0.93;;
1004;SDS011;491;53.480;10.174;2022-12-07T04:49:41;3.17;;;0.83;;
1004;SDS011;491;53.480;10.174;2022-12-07T04:52:07;3.30;;;1.17;;
1004;SDS011;491;53.480;10.174;2022-12-07T04:54:32;2.77;;;0.93;;
1004;SDS011;491;53.480;10.174;2022-12-07T04:56:58;2.57;;;1.70;;
1004;SDS011;491;53.480;10.174;2022-12-07T04:59:24;2.40;;;0.60;;
1004;SDS011;491;53.480;10.174;2022-12-07T05:01:49;1.80;;;0.83;;
1004;SDS011;491;53.480;10.174;2022-12-07T05:04:15;5.30;;;0.87;;
1004;SDS011;491;53.480;10.174;2022-12-07T05:06:41;4.03;;;0.90;;
1004;SDS011;491;53.480;10.174;2022-12-07T05:09:07;2.83;;;1.30;;
1004;SDS011;491;53.480;10.174;2022-12-07T05:11:32;1.53;;;1.27;;
1004;SDS011;491;53.480;10.174;2022-12-07T05:14:14;5.47;;;1.77;;
1004;SDS011;491;53.480;10.174;2022-12-07T05:16:42;4.67;;;1.20;;
1004;SDS011;491;53.480;10.174;2022-12-07T05:19:09;7.10;;;1.27;;
1004;SDS011;491;53.480;10.174;2022-12-07T05:21:35;1.13;;;0.77;;
1004;SDS011;491;53.480;10.174;2022-12-07T05:24:01;1.80;;;1.00;;
1004;SDS011;491;53.480;10.174;2022-12-07T05:26:26;2.70;;;1.13;;
1004;SDS011;491;53.480;10.174;2022-12-07T05:28:53;3.17;;;1.03;;
1004;SDS011;491;53.480;10.174;2022-12-07T05:31:19;2.30;;;0.50;;
1004;SDS011;491;53.480;10.174;2022-12-07T05:33:45;3.83;;;1.33;;
1004;SDS011;491;53.480;10.174;2022-12-07T05:36:11;3.10;;;1.20;;
1004;SDS011;491;53.480;10.174;2022-12-07T05:38:36;2.40;;;1.30;;
1004;SDS011;491;53.480;10.174;2022-12-07T05:41:03;1.30;;;0.60;;
1004;SDS011;491;53.480;10.174;2022-12-07T05:43:30;2.13;;;0.70;;
1004;SDS011;491;53.480;10.174;2022-12-07T05:45:55;1.73;;;0.80;;
1004;SDS011;491;53.480;10.174;2022-12-07T05:48:21;8.50;;;2.03;;
1004;SDS011;491;53.480;10.174;2022-12-07T05:50:47;5.93;;;1.53;;
1004;SDS011;491;53.480;10.174;2022-12-07T05:53:13;2.10;;;0.77;;
1004;SDS011;491;53.480;10.174;2022-12-07T05:55:39;3.70;;;1.23;;
1004;SDS011;491;53.480;10.174;2022-12-07T05:58:05;2.27;;;1.00;;
1004;SDS011;491;53.480;10.174;2022-12-07T06:00:49;2.87;;;1.43;;
1004;SDS011;491;53.480;10.174;2022-12-07T06:03:14;2.77;;;0.90;;
1004;SDS011;491;53.480;10.174;2022-12-07T06:05:40;1.50;;;0.80;;
1004;SDS011;491;53.480;10.174;2022-12-07T06:08:06;4.60;;;1.57;;
1004;SDS011;491;53.480;10.174;2022-12-07T06:10:32;3.90;;;1.10;;
1004;SDS011;491;53.480;10.174;2022-12-07T06:12:57;2.70;;;1.47;;
1004;SDS011;491;53.480;10.174;2022-12-07T06:15:23;2.90;;;1.00;;
1004;SDS011;491;53.480;10.174;2022-12-07T06:17:48;2.20;;;1.20;;
1004;SDS011;491;53.480;10.174;2022-12-07T06:20:14;2.83;;;1.33;;
1004;SDS011;491;53.480;10.174;2022-12-07T06:22:43;3.03;;;1.23;;
1004;SDS011;491;53.480;10.174;2022-12-07T06:25:08;8.50;;;1.90;;
1004;SDS011;491;53.480;10.174;2022-12-07T06:27:34;3.33;;;1.17;;
1004;SDS011;491;53.480;10.174;2022-12-07T06:30:00;4.10;;;0.73;;
1004;SDS011;491;53.480;10.174;2022-12-07T06:32:31;2.73;;;0.70;;
1004;SDS011;491;53.480;10.174;2022-12-07T06:34:57;2.60;;;0.90;;
1004;SDS011;491;53.480;10.174;2022-12-07T06:37:22;6.50;;;1.13;;
1004;SDS011;491;53.480;10.174;2022-12-07T06:39:50;1.90;;;0.83;;
1004;SDS011;491;53.480;10.174;2022-12-07T06:42:16;1.60;;;0.90;;
1004;SDS011;491;53.480;10.174;2022-12-07T06:44:41;6.37;;;2.13;;
1004;SDS011;491;53.480;10.174;2022-12-07T06:47:08;1.67;;;0.80;;
1004;SDS011;491;53.480;10.174;2022-12-07T06:49:34;1.43;;;0.73;;
1004;SDS011;491;53.480;10.174;2022-12-07T06:52:00;2.30;;;1.23;;
1004;SDS011;491;53.480;10.174;2022-12-07T06:54:25;3.07;;;1.07;;
1004;SDS011;491;53.480;10.174;2022-12-07T06:56:51;4.87;;;1.03;;
1004;SDS011;491;53.480;10.174;2022-12-07T06:59:16;2.40;;;0.83;;
1004;SDS011;491;53.480;10.174;2022-12-07T07:01:42;1.30;;;0.60;;
1004;SDS011;491;53.480;10.174;2022-12-07T07:04:07;1.80;;;1.00;;
1004;SDS011;491;53.480;10.174;2022-12-07T07:06:33;1.07;;;0.60;;
1004;SDS011;491;53.480;10.174;2022-12-07T07:08:59;2.83;;;1.03;;
1004;SDS011;491;53.480;10.174;2022-12-07T07:11:24;2.00;;;0.70;;
1004;SDS011;491;53.480;10.174;2022-12-07T07:13:53;2.60;;;1.10;;
1004;SDS011;491;53.480;10.174;2022-12-07T07:16:21;1.50;;;0.90;;
1004;SDS011;491;53.480;10.174;2022-12-07T07:18:47;1.90;;;0.90;;
1004;SDS011;491;53.480;10.174;2022-12-07T07:21:13;8.03;;;1.30;;
1004;SDS011;491;53.480;10.174;2022-12-07T07:23:38;2.47;;;1.10;;
1004;SDS011;491;53.480;10.174;2022-12-07T07:26:04;4.60;;;1.20;;
1004;SDS011;491;53.480;10.174;2022-12-07T07:28:29;3.67;;;1.03;;
1004;SDS011;491;53.480;10.174;2022-12-07T07:30:58;4.20;;;1.30;;
1004;SDS011;491;53.480;10.174;2022-12-07T07:33:23;1.03;;;0.60;;
1004;SDS011;491;53.480;10.174;2022-12-07T07:35:49;1.90;;;0.50;;
1004;SDS011;491;53.480;10.174;2022-12-07T07:38:15;7.20;;;0.87;;
1004;SDS011;491;53.480;10.174;2022-12-07T07:40:40;4.00;;;0.63;;
1004;SDS011;491;53.480;10.174;2022-12-07T07:43:06;2.73;;;0.67;;
1004;SDS011;491;53.480;10.174;2022-12-07T07:45:32;2.00;;;0.70;;
1004;SDS011;491;53.480;10.174;2022-12-07T07:47:58;2.17;;;0.57;;
1004;SDS011;491;53.480;10.174;2022-12-07T07:50:24;2.27;;;1.00;;
1004;SDS011;491;53.480;10.174;2022-12-07T07:52:49;4.00;;;0.73;;
1004;SDS011;491;53.480;10.174;2022-12-07T07:55:15;2.33;;;0.43;;
1004;SDS011;491;53.480;10.174;2022-12-07T07:57:41;6.37;;;1.20;;
1004;SDS011;491;53.480;10.174;2022-12-07T08:00:10;2.63;;;0.73;;
1004;SDS011;491;53.480;10.174;2022-12-07T08:02:38;2.10;;;0.60;;
1004;SDS011;491;53.480;10.174;2022-12-07T08:05:04;1.27;;;0.67;;
1004;SDS011;491;53.480;10.174;2022-12-07T08:07:30;1.33;;;0.30;;
1004;SDS011;491;53.480;10.174;2022-12-07T08:09:56;1.00;;;0.90;;
1004;SDS011;491;53.480;10.174;2022-12-07T08:12:22;1.03;;;0.67;;
1004;SDS011;491;53.480;10.174;2022-12-07T08:14:47;2.67;;;0.70;;
1004;SDS011;491;53.480;10.174;2022-12-07T08:17:13;0.87;;;0.30;;
1004;SDS011;491;53.480;10.174;2022-12-07T08:19:39;3.60;;;0.40;;
1004;SDS011;491;53.480;10.174;2022-12-07T08:22:05;3.00;;;0.83;;
1004;SDS011;491;53.480;10.174;2022-12-07T08:24:33;5.37;;;0.57;;
1004;SDS011;491;53.480;10.174;2022-12-07T08:26:59;3.40;;;1.00;;
1004;SDS011;491;53.480;10.174;2022-12-07T08:29:24;1.57;;;0.37;;
1004;SDS011;491;53.480;10.174;2022-12-07T08:31:50;1.23;;;0.30;;
1004;SDS011;491;53.480;10.174;2022-12-07T08:34:16;1.27;;;0.40;;
1004;SDS011;491;53.480;10.174;2022-12-07T08:36:41;2.40;;;0.77;;
1004;SDS011;491;53.480;10.174;2022-12-07T08:39:07;4.40;;;0.43;;
1004;SDS011;491;53.480;10.174;2022-12-07T08:41:32;4.40;;;0.60;;
1004;SDS011;491;53.480;10.174;2022-12-07T08:43:58;4.07;;;0.70;;
1004;SDS011;491;53.480;10.174;2022-12-07T08:49:02;4.97;;;0.90;;
1004;SDS011;491;53.480;10.174;2022-12-07T08:51:40;3.03;;;0.50;;
1004;SDS011;491;53.480;10.174;2022-12-07T08:54:07;3.80;;;0.80;;
1004;SDS011;491;53.480;10.174;2022-12-07T08:56:35;1.13;;;0.30;;
1004;SDS011;491;53.480;10.174;2022-12-07T08:59:02;2.60;;;0.50;;
1004;SDS011;491;53.480;10.174;2022-12-07T09:01:28;5.13;;;0.83;;
1004;SDS011;491;53.480;10.174;2022-12-07T09:03:54;1.30;;;0.70;;
1004;SDS011;491;53.480;10.174;2022-12-07T09:06:20;2.83;;;0.90;;
1004;SDS011;491;53.480;10.174;2022-12-07T09:08:46;1.60;;;0.60;;
1004;SDS011;491;53.480;10.174;2022-12-07T09:11:15;1.20;;;0.63;;
1004;SDS011;491;53.480;10.174;2022-12-07T09:13:40;1.70;;;1.00;;
1004;SDS011;491;53.480;10.174;2022-12-07T09:16:06;0.90;;;0.30;;
1004;SDS011;491;53.480;10.174;2022-12-07T09:18:31;3.10;;;0.50;;
1004;SDS011;491;53.480;10.174;2022-12-07T09:20:57;4.87;;;0.77;;
1004;SDS011;491;53.480;10.174;2022-12-07T09:23:22;3.20;;;0.67;;
1004;SDS011;491;53.480;10.174;2022-12-07T09:25:48;1.30;;;0.43;;
1004;SDS011;491;53.480;10.174;2022-12-07T09:28:13;2.80;;;0.50;;
1004;SDS011;491;53.480;10.174;2022-12-07T09:30:44;3.40;;;0.33;;
1004;SDS011;491;53.480;10.174;2022-12-07T09:33:13;6.73;;;0.87;;
1004;SDS011;491;53.480;10.174;2022-12-07T09:35:44;5.10;;;0.50;;
1004;SDS011;491;53.480;10.174;2022-12-07T09:38:10;2.30;;;0.90;;
1004;SDS011;491;53.480;10.174;2022-12-07T09:40:40;2.00;;;0.40;;
1004;SDS011;491;53.480;10.174;2022-12-07T09:43:18;1.70;;;0.40;;
1004;SDS011;491;53.480;10.174;2022-12-07T09:45:50;6.70;;;0.90;;
1004;SDS011;491;53.480;10.174;2022-12-07T09:48:19;1.47;;;0.50;;
1004;SDS011;491;53.480;10.174;2022-12-07T09:50:47;2.43;;;0.40;;
1004;SDS011;491;53.480;10.174;2022-12-07T09:53:15;1.90;;;0.30;;
1004;SDS011;491;53.480;10.174;2022-12-07T09:55:53;3.20;;;0.50;;
1004;SDS011;491;53.480;10.174;2022-12-07T09:58:20;4.83;;;0.50;;
1004;SDS011;491;53.480;10.174;2022-12-07T10:01:11;0.87;;;0.30;;
1004;SDS011;491;53.480;10.174;2022-12-07T10:03:38;2.10;;;0.30;;
1004;SDS011;491;53.480;10.174;2022-12-07T10:06:09;2.17;;;0.30;;
1004;SDS011;491;53.480;10.174;2022-12-07T10:08:37;1.23;;;0.30;;
1004;SDS011;491;53.480;10.174;2022-12-07T10:11:03;3.60;;;0.90;;
1004;SDS011;491;53.480;10.174;2022-12-07T10:13:36;0.73;;;0.20;;
1004;SDS011;491;53.480;10.174;2022-12-07T10:16:03;4.63;;;0.60;;
1004;SDS011;491;53.480;10.174;2022-12-07T10:18:36;7.47;;;0.70;;
1004;SDS011;491;53.480;10.174;2022-12-07T10:23:39;1.70;;;0.20;;
1004;SDS011;491;53.480;10.174;2022-12-07T10:28:59;2.57;;;0.70;;
1004;SDS011;491;53.480;10.174;2022-12-07T10:31:43;2.23;;;0.27;;
1004;SDS011;491;53.480;10.174;2022-12-07T10:34:23;1.77;;;0.40;;
1004;SDS011;491;53.480;10.174;2022-12-07T10:36:52;2.70;;;0.20;;
1004;SDS011;491;53.480;10.174;2022-12-07T10:39:19;4.27;;;0.53;;
1004;SDS011;491;53.480;10.174;2022-12-07T10:41:56;2.37;;;0.30;;
1004;SDS011;491;53.480;10.174;2022-12-07T10:44:27;2.60;;;0.50;;
1004;SDS011;491;53.480;10.174;2022-12-07T10:47:09;0.40;;;0.20;;
1004;SDS011;491;53.480;10.174;2022-12-07T10:49:48;3.00;;;0.30;;
1004;SDS011;491;53.480;10.174;2022-12-07T10:58:11;1.07;;;0.30;;
1004;SDS011;491;53.480;10.174;2022-12-07T11:01:22;0.93;;;0.20;;
1004;SDS011;491;53.480;10.174;2022-12-07T11:09:35;1.53;;;0.50;;
1004;SDS011;491;53.480;10.174;2022-12-07T11:18:58;1.00;;;0.20;;
1004;SDS011;491;53.480;10.174;2022-12-07T11:21:45;0.50;;;0.20;;
1004;SDS011;491;53.480;10.174;2022-12-07T11:24:26;0.93;;;0.20;;
1004;SDS011;491;53.480;10.174;2022-12-07T11:27:17;3.50;;;0.30;;
1004;SDS011;491;53.480;10.174;2022-12-07T11:35:08;1.93;;;0.30;;
1004;SDS011;491;53.480;10.174;2022-12-07T11:37:43;0.50;;;0.20;;
1004;SDS011;491;53.480;10.174;2022-12-07T11:45:44;4.40;;;0.20;;
1004;SDS011;491;53.480;10.174;2022-12-07T11:51:01;8.10;;;0.33;;
1004;SDS011;491;53.480;10.174;2022-12-07T11:53:38;3.57;;;0.53;;
1004;SDS011;491;53.480;10.174;2022-12-07T11:56:14;3.43;;;0.30;;
1004;SDS011;491;53.480;10.174;2022-12-07T12:01:29;2.10;;;0.87;;
1004;SDS011;491;53.480;10.174;2022-12-07T12:06:38;2.00;;;0.33;;
1004;SDS011;491;53.480;10.174;2022-12-07T12:14:40;1.97;;;0.20;;
1004;SDS011;491;53.480;10.174;2022-12-07T12:20:16;2.40;;;0.60;;
1004;SDS011;491;53.480;10.174;2022-12-07T12:22:53;0.63;;;0.40;;
1004;SDS011;491;53.480;10.174;2022-12-07T12:25:38;1.73;;;0.20;;
1004;SDS011;491;53.480;10.174;2022-12-07T12:28:21;2.20;;;0.30;;
1004;SDS011;491;53.480;10.174;2022-12-07T12:31:05;2.10;;;0.30;;
1004;SDS011;491;53.480;10.174;2022-12-07T12:33:33;2.90;;;0.60;;
1004;SDS011;491;53.480;10.174;2022-12-07T12:44:23;1.63;;;0.57;;
1004;SDS011;491;53.480;10.174;2022-12-07T12:47:01;7.67;;;0.63;;
1004;SDS011;491;53.480;10.174;2022-12-07T12:55:00;3.03;;;0.60;;
1004;SDS011;491;53.480;10.174;2022-12-07T12:58:33;2.40;;;0.50;;
1004;SDS011;491;53.480;10.174;2022-12-07T13:03:56;7.97;;;0.53;;
1004;SDS011;491;53.480;10.174;2022-12-07T13:08:54;0.30;;;0.20;;
1004;SDS011;491;53.480;10.174;2022-12-07T13:11:33;1.47;;;0.23;;
1004;SDS011;491;53.480;10.174;2022-12-07T13:17:54;1.70;;;0.40;;
1004;SDS011;491;53.480;10.174;2022-12-07T13:19:55;1.83;;;0.33;;
1004;SDS011;491;53.480;10.174;2022-12-07T13:24:56;2.33;;;0.20;;
1004;SDS011;491;53.480;10.174;2022-12-07T13:27:29;1.47;;;0.30;;
1004;SDS011;491;53.480;10.174;2022-12-07T13:29:59;2.03;;;0.20;;
1004;SDS011;491;53.480;10.174;2022-12-07T13:32:26;2.87;;;0.50;;
1004;SDS011;491;53.480;10.174;2022-12-07T13:34:53;2.47;;;0.33;;
1004;SDS011;491;53.480;10.174;2022-12-07T13:37:32;4.03;;;0.30;;
1004;SDS011;491;53.480;10.174;2022-12-07T13:40:17;1.50;;;0.40;;
1004;SDS011;491;53.480;10.174;2022-12-07T13:42:45;6.07;;;0.87;;
1004;SDS011;491;53.480;10.174;2022-12-07T13:45:29;4.90;;;0.40;;
1004;SDS011;491;53.480;10.174;2022-12-07T13:48:27;2.07;;;0.40;;
1004;SDS011;491;53.480;10.174;2022-12-07T13:50:59;4.80;;;0.40;;
1004;SDS011;491;53.480;10.174;2022-12-07T13:53:30;2.80;;;0.33;;
1004;SDS011;491;53.480;10.174;2022-12-07T13:55:56;1.30;;;0.23;;
1004;SDS011;491;53.480;10.174;2022-12-07T13:58:24;5.17;;;0.40;;
1004;SDS011;491;53.480;10.174;2022-12-07T14:00:52;1.73;;;0.60;;
1004;SDS011;491;53.480;10.174;2022-12-07T14:03:29;2.47;;;0.50;;
1004;SDS011;491;53.480;10.174;2022-12-07T14:11:40;1.97;;;0.30;;
1004;SDS011;491;53.480;10.174;2022-12-07T14:14:06;1.57;;;0.30;;
1004;SDS011;491;53.480;10.174;2022-12-07T14:16:38;3.70;;;0.20;;
1004;SDS011;491;53.480;10.174;2022-12-07T14:19:05;4.30;;;0.70;;
1004;SDS011;491;53.480;10.174;2022-12-07T14:22:07;1.23;;;0.43;;
1004;SDS011;491;53.480;10.174;2022-12-07T14:24:44;0.77;;;0.30;;
1004;SDS011;491;53.480;10.174;2022-12-07T14:27:16;4.83;;;1.43;;
1004;SDS011;491;53.480;10.174;2022-12-07T14:29:55;0.93;;;0.40;;
1004;SDS011;491;53.480;10.174;2022-12-07T14:32:28;2.30;;;0.30;;
1004;SDS011;491;53.480;10.174;2022-12-07T14:37:28;1.37;;;0.20;;
1004;SDS011;491;53.480;10.174;2022-12-07T14:39:55;1.60;;;0.40;;
1004;SDS011;491;53.480;10.174;2022-12-07T14:42:23;3.23;;;0.43;;
1004;SDS011;491;53.480;10.174;2022-12-07T14:44:52;2.93;;;0.77;;
1004;SDS011;491;53.480;10.174;2022-12-07T14:47:17;7.57;;;0.90;;
1004;SDS011;491;53.480;10.174;2022-12-07T14:49:46;0.63;;;0.20;;
1004;SDS011;491;53.480;10.174;2022-12-07T14:52:30;2.20;;;0.93;;
1004;SDS011;491;53.480;10.174;2022-12-07T14:54:55;0.50;;;0.30;;
1004;SDS011;491;53.480;10.174;2022-12-07T14:57:22;2.63;;;0.40;;
1004;SDS011;491;53.480;10.174;2022-12-07T14:59:48;3.30;;;0.30;;
1004;SDS011;491;53.480;10.174;2022-12-07T15:02:15;5.90;;;1.40;;
1004;SDS011;491;53.480;10.174;2022-12-07T15:04:42;0.70;;;0.30;;
1004;SDS011;491;53.480;10.174;2022-12-07T15:07:18;2.43;;;0.37;;
1004;SDS011;491;53.480;10.174;2022-12-07T15:09:46;1.33;;;0.60;;
1004;SDS011;491;53.480;10.174;2022-12-07T15:12:12;0.60;;;0.47;;
1004;SDS011;491;53.480;10.174;2022-12-07T15:14:38;2.10;;;0.37;;
1004;SDS011;491;53.480;10.174;2022-12-07T15:17:04;0.60;;;0.20;;
1004;SDS011;491;53.480;10.174;2022-12-07T15:19:29;0.40;;;0.23;;
1004;SDS011;491;53.480;10.174;2022-12-07T15:22:01;1.83;;;0.30;;
1004;SDS011;491;53.480;10.174;2022-12-07T15:24:26;5.10;;;0.93;;
1004;SDS011;491;53.480;10.174;2022-12-07T15:26:58;0.67;;;0.40;;
1004;SDS011;491;53.480;10.174;2022-12-07T15:29:27;7.63;;;0.50;;
1004;SDS011;491;53.480;10.174;2022-12-07T15:32:01;3.23;;;0.63;;
1004;SDS011;491;53.480;10.174;2022-12-07T15:34:39;4.73;;;0.50;;
1004;SDS011;491;53.480;10.174;2022-12-07T15:37:07;1.20;;;0.83;;
1004;SDS011;491;53.480;10.174;2022-12-07T15:39:33;4.60;;;0.80;;
1004;SDS011;491;53.480;10.174;2022-12-07T15:42:01;9.00;;;0.80;;
1004;SDS011;491;53.480;10.174;2022-12-07T15:44:27;2.97;;;0.37;;
1004;SDS011;491;53.480;10.174;2022-12-07T15:47:14;0.90;;;0.20;;
1004;SDS011;491;53.480;10.174;2022-12-07T15:49:43;6.83;;;0.60;;
1004;SDS011;491;53.480;10.174;2022-12-07T15:52:10;1.73;;;0.20;;
1004;SDS011;491;53.480;10.174;2022-12-07T15:54:37;2.30;;;0.80;;
1004;SDS011;491;53.480;10.174;2022-12-07T15:57:06;1.10;;;0.50;;
1004;SDS011;491;53.480;10.174;2022-12-07T15:59:33;0.73;;;0.27;;
1004;SDS011;491;53.480;10.174;2022-12-07T16:02:05;8.20;;;0.70;;
1004;SDS011;491;53.480;10.174;2022-12-07T16:04:38;5.20;;;0.70;;
1004;SDS011;491;53.480;10.174;2022-12-07T16:07:13;1.23;;;0.30;;
1004;SDS011;491;53.480;10.174;2022-12-07T16:09:58;1.33;;;0.50;;
1004;SDS011;491;53.480;10.174;2022-12-07T16:12:30;1.83;;;0.57;;
1004;SDS011;491;53.480;10.174;2022-12-07T16:14:55;4.40;;;0.60;;
1004;SDS011;491;53.480;10.174;2022-12-07T16:17:21;4.00;;;0.23;;
1004;SDS011;491;53.480;10.174;2022-12-07T16:19:50;1.87;;;0.47;;
1004;SDS011;491;53.480;10.174;2022-12-07T16:22:24;1.90;;;0.40;;
1004;SDS011;491;53.480;10.174;2022-12-07T16:24:56;1.90;;;0.57;;
1004;SDS011;491;53.480;10.174;2022-12-07T16:27:22;0.80;;;0.40;;
1004;SDS011;491;53.480;10.174;2022-12-07T16:29:50;3.00;;;0.50;;
1004;SDS011;491;53.480;10.174;2022-12-07T16:32:22;2.37;;;0.37;;
1004;SDS011;491;53.480;10.174;2022-12-07T16:34:47;2.83;;;0.40;;
1004;SDS011;491;53.480;10.174;2022-12-07T16:37:13;1.60;;;0.63;;
1004;SDS011;491;53.480;10.174;2022-12-07T16:39:41;2.37;;;1.17;;
1004;SDS011;491;53.480;10.174;2022-12-07T16:42:07;3.13;;;0.57;;
1004;SDS011;491;53.480;10.174;2022-12-07T16:44:33;2.63;;;0.53;;
1004;SDS011;491;53.480;10.174;2022-12-07T16:46:59;6.43;;;1.40;;
1004;SDS011;491;53.480;10.174;2022-12-07T16:49:25;3.77;;;0.67;;
1004;SDS011;491;53.480;10.174;2022-12-07T16:51:54;0.60;;;0.50;;
1004;SDS011;491;53.480;10.174;2022-12-07T16:54:20;0.83;;;0.33;;
1004;SDS011;491;53.480;10.174;2022-12-07T16:56:57;2.97;;;0.53;;
1004;SDS011;491;53.480;10.174;2022-12-07T16:59:26;2.57;;;0.67;;
1004;SDS011;491;53.480;10.174;2022-12-07T17:01:51;3.43;;;1.30;;
1004;SDS011;491;53.480;10.174;2022-12-07T17:04:23;3.53;;;0.60;;
1004;SDS011;491;53.480;10.174;2022-12-07T17:06:48;5.30;;;0.73;;
1004;SDS011;491;53.480;10.174;2022-12-07T17:09:14;2.70;;;0.60;;
1004;SDS011;491;53.480;10.174;2022-12-07T17:11:42;2.13;;;1.17;;
1004;SDS011;491;53.480;10.174;2022-12-07T17:14:09;3.87;;;1.30;;
1004;SDS011;491;53.480;10.174;2022-12-07T17:16:53;6.73;;;2.50;;
1004;SDS011;491;53.480;10.174;2022-12-07T17:19:18;4.50;;;1.57;;
1004;SDS011;491;53.480;10.174;2022-12-07T17:21:44;5.63;;;1.40;;
1004;SDS011;491;53.480;10.174;2022-12-07T17:24:12;2.90;;;1.37;;